createdAt,value
2019-04-05T00:00:37.063Z,11.33
2019-04-05T00:01:13.247Z,10.67
2019-04-05T00:01:48.746Z,11.67
2019-04-05T00:02:24.266Z,12.47
2019-04-05T00:02:59.766Z,11.07
2019-04-05T00:03:35.273Z,11.10
2019-04-05T00:04:10.801Z,11.63
2019-04-05T00:04:46.306Z,11.63
2019-04-05T00:05:21.839Z,12.37
2019-04-05T00:05:57.688Z,11.17
2019-04-05T00:06:33.210Z,11.43
2019-04-05T00:07:08.745Z,11.90
2019-04-05T00:07:45.223Z,12.00
2019-04-05T00:08:20.865Z,11.57
2019-04-05T00:08:56.409Z,12.03
2019-04-05T00:09:31.917Z,11.67
2019-04-05T00:10:07.453Z,11.40
2019-04-05T00:10:43.046Z,11.37
2019-04-05T00:11:18.583Z,13.07
2019-04-05T00:11:54.118Z,10.60
2019-04-05T00:12:29.744Z,11.83
2019-04-05T00:13:05.583Z,12.03
2019-04-05T00:13:41.118Z,11.73
2019-04-05T00:14:17.599Z,12.33
2019-04-05T00:14:53.133Z,12.10
2019-04-05T00:15:28.697Z,11.33
2019-04-05T00:16:04.210Z,11.90
2019-04-05T00:16:39.742Z,13.47
2019-04-05T00:17:15.249Z,12.10
2019-04-05T00:17:50.803Z,12.77
2019-04-05T00:18:26.337Z,12.17
2019-04-05T00:19:01.875Z,13.87
2019-04-05T00:19:37.391Z,12.77
2019-04-05T00:20:12.914Z,14.07
2019-04-05T00:20:48.466Z,13.50
2019-04-05T00:21:23.984Z,14.70
2019-04-05T00:21:59.580Z,12.80
2019-04-05T00:22:35.438Z,12.10
2019-04-05T00:23:11.263Z,13.03
2019-04-05T00:23:47.175Z,12.00
2019-04-05T00:24:22.760Z,11.97
2019-04-05T00:24:58.283Z,12.23
2019-04-05T00:25:33.900Z,13.50
2019-04-05T00:26:09.720Z,13.00
2019-04-05T00:26:45.263Z,12.13
2019-04-05T00:27:20.795Z,12.33
2019-04-05T00:27:56.306Z,13.07
2019-04-05T00:28:31.834Z,11.77
2019-04-05T00:29:07.355Z,12.77
2019-04-05T00:29:42.870Z,13.03
2019-04-05T00:30:18.403Z,12.37
2019-04-05T00:30:53.938Z,15.07
2019-04-05T00:31:29.482Z,13.47
2019-04-05T00:32:04.990Z,14.57
2019-04-05T00:32:40.566Z,13.33
2019-04-05T00:33:16.153Z,13.77
2019-04-05T00:33:51.725Z,13.57
2019-04-05T00:34:27.284Z,13.03
2019-04-05T00:35:03.087Z,13.73
2019-04-05T00:35:38.591Z,14.30
2019-04-05T00:36:14.125Z,13.90
2019-04-05T00:36:50.706Z,13.53
2019-04-05T00:37:26.218Z,14.10
2019-04-05T00:38:01.819Z,14.57
2019-04-05T00:38:37.343Z,14.47
2019-04-05T00:39:12.953Z,14.37
2019-04-05T00:39:48.479Z,15.67
2019-04-05T00:40:24.003Z,14.60
2019-04-05T00:40:59.530Z,15.23
2019-04-05T00:41:35.066Z,13.43
2019-04-05T00:42:10.660Z,14.53
2019-04-05T00:42:46.263Z,15.30
2019-04-05T00:43:21.786Z,14.50
2019-04-05T00:43:57.319Z,14.23
2019-04-05T00:44:32.896Z,14.67
2019-04-05T00:45:08.432Z,14.07
2019-04-05T00:45:44.267Z,14.53
2019-04-05T00:46:19.854Z,13.17
2019-04-05T00:46:55.382Z,15.30
2019-04-05T00:47:30.915Z,15.90
2019-04-05T00:48:06.431Z,14.57
2019-04-05T00:48:41.957Z,13.57
2019-04-05T00:49:17.774Z,12.67
2019-04-05T00:49:53.316Z,14.40
2019-04-05T00:50:29.919Z,12.40
2019-04-05T00:51:05.481Z,13.70
2019-04-05T00:51:41.070Z,13.40
2019-04-05T00:52:16.583Z,13.03
2019-04-05T00:52:52.853Z,12.67
2019-04-05T00:53:28.395Z,12.43
2019-04-05T00:54:04.086Z,13.23
2019-04-05T00:54:39.605Z,12.23
2019-04-05T00:55:15.401Z,13.50
2019-04-05T00:55:51.010Z,13.33
2019-04-05T00:56:26.783Z,12.50
2019-04-05T00:57:02.301Z,12.63
2019-04-05T00:57:37.815Z,14.03
2019-04-05T00:58:13.339Z,11.43
2019-04-05T00:58:48.880Z,13.60
2019-04-05T00:59:24.407Z,11.93
2019-04-05T00:59:59.949Z,14.40
2019-04-05T01:00:35.711Z,16.03
2019-04-05T01:01:11.610Z,12.70
2019-04-05T01:01:47.513Z,14.30
2019-04-05T01:02:24.067Z,13.77
2019-04-05T01:02:59.907Z,13.97
2019-04-05T01:03:35.804Z,15.17
2019-04-05T01:04:11.605Z,14.47
2019-04-05T01:04:47.510Z,13.67
2019-04-05T01:05:23.039Z,13.87
2019-04-05T01:05:58.556Z,15.90
2019-04-05T01:06:34.058Z,14.93
2019-04-05T01:07:10.650Z,15.03
2019-04-05T01:07:46.187Z,14.87
2019-04-05T01:08:22.008Z,15.73
2019-04-05T01:08:57.536Z,15.93
2019-04-05T01:09:33.054Z,15.37
2019-04-05T01:10:08.712Z,15.90
2019-04-05T01:10:44.243Z,15.70
2019-04-05T01:11:19.859Z,15.93
2019-04-05T01:11:55.450Z,17.70
2019-04-05T01:12:32.113Z,16.00
2019-04-05T01:13:07.855Z,15.43
2019-04-05T01:13:43.403Z,17.33
2019-04-05T01:14:18.963Z,16.60
2019-04-05T01:14:54.523Z,17.43
2019-04-05T01:15:40.310Z,16.50
2019-04-05T01:16:07.327Z,16.20
2019-04-05T01:16:42.850Z,18.03
2019-04-05T01:17:24.818Z,15.67
2019-04-05T01:17:55.611Z,14.97
2019-04-05T01:18:31.140Z,13.83
2019-04-05T01:19:06.683Z,14.77
2019-04-05T01:19:42.271Z,17.43
2019-04-05T01:20:17.890Z,14.77
2019-04-05T01:20:54.061Z,15.30
2019-04-05T01:21:33.850Z,16.23
2019-04-05T01:22:09.383Z,19.37
2019-04-05T01:22:45.318Z,17.77
2019-04-05T01:23:20.974Z,18.13
2019-04-05T01:23:56.873Z,17.50
2019-04-05T01:24:32.694Z,15.93
2019-04-05T01:25:09.281Z,16.77
2019-04-05T01:25:45.258Z,16.80
2019-04-05T01:26:20.782Z,16.37
2019-04-05T01:26:56.307Z,16.53
2019-04-05T01:27:32.084Z,17.60
2019-04-05T01:28:07.675Z,19.37
2019-04-05T01:28:43.199Z,20.10
2019-04-05T01:29:18.722Z,18.30
2019-04-05T01:29:54.290Z,19.27
2019-04-05T01:30:29.862Z,17.17
2019-04-05T01:31:05.394Z,17.97
2019-04-05T01:31:41.153Z,16.53
2019-04-05T01:32:16.750Z,16.47
2019-04-05T01:32:52.316Z,15.67
2019-04-05T01:33:27.868Z,15.30
2019-04-05T01:34:05.593Z,15.77
2019-04-05T01:34:40.882Z,16.90
2019-04-05T01:35:16.685Z,17.00
2019-04-05T01:35:52.469Z,17.60
2019-04-05T01:36:27.994Z,18.13
2019-04-05T01:37:03.779Z,16.17
2019-04-05T01:37:39.370Z,16.53
2019-04-05T01:38:14.921Z,16.23
2019-04-05T01:38:50.515Z,16.23
2019-04-05T01:39:26.034Z,17.53
2019-04-05T01:40:01.575Z,17.93
2019-04-05T01:40:37.093Z,18.33
2019-04-05T01:41:12.611Z,19.70
2019-04-05T01:41:48.141Z,22.73
2019-04-05T01:42:24.004Z,21.70
2019-04-05T01:42:59.539Z,21.50
2019-04-05T01:43:35.058Z,19.67
2019-04-05T01:44:10.621Z,21.83
2019-04-05T01:44:46.131Z,21.80
2019-04-05T01:45:22.715Z,19.63
2019-04-05T01:45:58.222Z,21.67
2019-04-05T01:46:33.743Z,20.23
2019-04-05T01:47:09.275Z,21.97
2019-04-05T01:47:44.801Z,20.27
2019-04-05T01:48:20.755Z,18.30
2019-04-05T01:48:56.277Z,20.27
2019-04-05T01:49:31.798Z,21.63
2019-04-05T01:50:07.519Z,18.70
2019-04-05T01:50:44.023Z,20.90
2019-04-05T01:51:19.554Z,22.93
2019-04-05T01:51:55.070Z,21.57
2019-04-05T01:52:30.583Z,20.87
2019-04-05T01:53:06.396Z,20.83
2019-04-05T01:53:41.922Z,20.07
2019-04-05T01:54:17.438Z,19.70
2019-04-05T01:54:52.947Z,20.00
2019-04-05T01:55:28.793Z,22.13
2019-04-05T01:56:04.383Z,23.30
2019-04-05T01:56:39.915Z,19.67
2019-04-05T01:57:15.453Z,22.37
2019-04-05T01:57:51.005Z,20.10
2019-04-05T01:58:26.547Z,22.07
2019-04-05T01:59:02.062Z,21.77
2019-04-05T01:59:37.590Z,18.93
2019-04-05T02:00:13.121Z,21.67
2019-04-05T02:00:48.688Z,22.40
2019-04-05T02:01:24.277Z,20.90
2019-04-05T02:01:59.820Z,21.00
2019-04-05T02:02:35.353Z,21.50
2019-04-05T02:03:10.879Z,20.23
2019-04-05T02:03:46.432Z,21.03
2019-04-05T02:04:21.946Z,19.17
2019-04-05T02:04:57.486Z,20.73
2019-04-05T02:05:33.018Z,23.90
2019-04-05T02:06:08.622Z,23.00
2019-04-05T02:06:44.143Z,24.27
2019-04-05T02:07:19.645Z,25.30
2019-04-05T02:07:55.176Z,22.80
2019-04-05T02:08:30.723Z,23.67
2019-04-05T02:09:09.352Z,25.40
2019-04-05T02:09:45.097Z,25.00
2019-04-05T02:10:20.625Z,22.00
2019-04-05T02:10:56.139Z,23.77
2019-04-05T02:11:31.655Z,25.07
2019-04-05T02:12:07.259Z,23.17
2019-04-05T02:12:42.812Z,26.97
2019-04-05T02:13:18.342Z,24.03
2019-04-05T02:13:53.887Z,23.70
2019-04-05T02:14:29.414Z,23.37
2019-04-05T02:15:05.166Z,23.87
2019-04-05T02:15:40.683Z,24.17
2019-04-05T02:16:16.466Z,21.60
2019-04-05T02:16:51.996Z,20.27
2019-04-05T02:17:27.529Z,21.50
2019-04-05T02:18:03.038Z,19.80
2019-04-05T02:18:38.582Z,19.63
2019-04-05T02:19:15.074Z,20.93
2019-04-05T02:19:50.607Z,19.30
2019-04-05T02:20:26.138Z,18.97
2019-04-05T02:21:01.772Z,17.30
2019-04-05T02:21:37.284Z,19.07
2019-04-05T02:22:13.116Z,20.60
2019-04-05T02:22:48.649Z,18.87
2019-04-05T02:23:24.167Z,19.67
2019-04-05T02:24:00.045Z,19.60
2019-04-05T02:24:35.558Z,19.50
2019-04-05T02:25:11.069Z,20.47
2019-04-05T02:25:46.602Z,20.47
2019-04-05T02:26:22.182Z,18.03
2019-04-05T02:26:57.960Z,18.43
2019-04-05T02:27:33.501Z,18.20
2019-04-05T02:28:09.018Z,17.83
2019-04-05T02:28:44.810Z,18.90
2019-04-05T02:29:20.329Z,20.60
2019-04-05T02:29:55.864Z,19.90
2019-04-05T02:30:31.460Z,20.63
2019-04-05T02:31:07.957Z,18.90
2019-04-05T02:31:43.498Z,19.93
2019-04-05T02:32:19.072Z,18.90
2019-04-05T02:32:54.616Z,19.97
2019-04-05T02:33:30.137Z,19.33
2019-04-05T02:34:05.816Z,18.93
2019-04-05T02:34:41.389Z,16.70
2019-04-05T02:35:16.923Z,20.63
2019-04-05T02:35:52.473Z,19.93
2019-04-05T02:36:27.991Z,20.70
2019-04-05T02:37:03.520Z,19.00
2019-04-05T02:37:39.079Z,20.70
2019-04-05T02:38:14.599Z,20.07
2019-04-05T02:38:50.375Z,22.60
2019-04-05T02:39:26.172Z,19.93
2019-04-05T02:40:01.776Z,22.83
2019-04-05T02:40:37.821Z,21.97
2019-04-05T02:41:14.370Z,21.07
2019-04-05T02:41:49.896Z,21.83
2019-04-05T02:42:25.414Z,21.80
2019-04-05T02:43:00.948Z,22.30
2019-04-05T02:43:36.460Z,19.40
2019-04-05T02:44:11.994Z,18.77
2019-04-05T02:44:47.783Z,20.10
2019-04-05T02:45:23.294Z,21.60
2019-04-05T02:45:58.831Z,22.03
2019-04-05T02:46:34.351Z,21.17
2019-04-05T02:47:10.181Z,20.30
2019-04-05T02:47:51.902Z,20.30
2019-04-05T02:48:27.862Z,21.47
2019-04-05T02:49:03.387Z,22.00
2019-04-05T02:49:38.930Z,21.40
2019-04-05T02:50:14.468Z,21.67
2019-04-05T02:50:52.259Z,22.40
2019-04-05T02:51:28.129Z,23.13
2019-04-05T02:52:03.694Z,21.43
2019-04-05T02:52:39.273Z,24.63
2019-04-05T02:53:15.061Z,23.10
2019-04-05T02:53:50.574Z,21.20
2019-04-05T02:54:26.102Z,23.57
2019-04-05T02:55:01.754Z,20.77
2019-04-05T02:55:38.034Z,22.27
2019-04-05T02:56:13.621Z,22.63
2019-04-05T02:56:49.147Z,22.23
2019-04-05T02:57:24.665Z,22.70
2019-04-05T02:58:00.326Z,23.93
2019-04-05T02:58:36.284Z,26.10
2019-04-05T02:59:12.097Z,22.63
2019-04-05T02:59:47.991Z,21.73
2019-04-05T03:00:23.578Z,21.70
2019-04-05T03:00:59.216Z,22.80
2019-04-05T03:01:34.768Z,23.73
2019-04-05T03:02:10.630Z,22.83
2019-04-05T03:02:46.189Z,21.77
2019-04-05T03:03:21.700Z,22.67
2019-04-05T03:03:58.215Z,21.53
2019-04-05T03:04:33.743Z,22.30
2019-04-05T03:05:09.262Z,23.07
2019-04-05T03:05:44.779Z,22.90
2019-04-05T03:06:20.598Z,22.40
2019-04-05T03:06:56.177Z,21.50
2019-04-05T03:07:31.701Z,24.57
2019-04-05T03:08:07.440Z,21.80
2019-04-05T03:08:43.256Z,24.63
2019-04-05T03:09:18.940Z,23.03
2019-04-05T03:09:54.850Z,23.97
2019-04-05T03:11:06.151Z,24.73
2019-04-05T03:11:41.702Z,22.47
2019-04-05T03:12:19.041Z,23.40
2019-04-05T03:12:54.536Z,23.03
2019-04-05T03:13:30.556Z,21.93
2019-04-05T03:14:06.218Z,21.70
2019-04-05T03:14:41.757Z,23.50
2019-04-05T03:15:17.308Z,23.27
2019-04-05T03:15:52.875Z,22.13
2019-04-05T03:16:40.871Z,21.53
2019-04-05T03:17:10.921Z,22.13
2019-04-05T03:17:46.454Z,21.37
2019-04-05T03:18:22.327Z,23.60
2019-04-05T03:19:04.240Z,23.40
2019-04-05T03:19:39.783Z,21.13
2019-04-05T03:20:15.701Z,21.27
2019-04-05T03:20:51.222Z,22.83
2019-04-05T03:21:28.248Z,19.60
2019-04-05T03:22:04.920Z,23.40
2019-04-05T03:22:40.453Z,25.63
2019-04-05T03:23:15.968Z,23.17
2019-04-05T03:23:51.476Z,23.17
2019-04-05T03:24:30.068Z,24.13
2019-04-05T03:25:05.980Z,23.53
2019-04-05T03:25:42.155Z,22.80
2019-04-05T03:26:19.050Z,23.00
2019-04-05T03:27:00.870Z,24.33
2019-04-05T03:27:36.755Z,23.83
2019-04-05T03:28:12.274Z,23.43
2019-04-05T03:28:49.328Z,23.40
2019-04-05T03:29:24.860Z,23.33
2019-04-05T03:30:01.226Z,23.83
2019-04-05T03:30:36.834Z,23.13
2019-04-05T03:31:12.704Z,24.63
2019-04-05T03:31:48.221Z,26.87
2019-04-05T03:32:24.191Z,24.37
2019-04-05T03:32:59.708Z,22.10
2019-04-05T03:33:35.243Z,23.67
2019-04-05T03:34:10.858Z,22.57
2019-04-05T03:34:46.701Z,23.70
2019-04-05T03:35:22.233Z,22.87
2019-04-05T03:35:57.764Z,24.63
2019-04-05T03:36:33.279Z,23.93
2019-04-05T03:37:08.905Z,23.03
2019-04-05T03:37:44.408Z,24.80
2019-04-05T03:38:19.920Z,20.97
2019-04-05T03:38:55.465Z,20.90
2019-04-05T03:39:30.979Z,24.63
2019-04-05T03:40:06.519Z,22.83
2019-04-05T03:40:42.376Z,24.40
2019-04-05T03:41:17.902Z,23.10
2019-04-05T03:41:53.878Z,24.67
2019-04-05T03:42:29.565Z,23.30
2019-04-05T03:43:05.420Z,23.87
2019-04-05T03:43:40.953Z,23.37
2019-04-05T03:44:16.490Z,24.40
2019-04-05T03:44:52.029Z,27.13
2019-04-05T03:45:27.826Z,21.47
2019-04-05T03:46:03.353Z,23.50
2019-04-05T03:46:54.896Z,22.70
2019-04-05T03:47:16.362Z,22.13
2019-04-05T03:47:51.945Z,23.40
2019-04-05T03:48:27.460Z,21.70
2019-04-05T03:49:03.793Z,23.70
2019-04-05T03:49:39.445Z,21.47
2019-04-05T03:50:14.966Z,20.03
2019-04-05T03:50:50.601Z,22.27
2019-04-05T03:51:26.117Z,21.87
2019-04-05T03:52:01.654Z,22.43
2019-04-05T03:52:37.274Z,23.23
2019-04-05T03:53:12.848Z,25.03
2019-04-05T03:53:48.385Z,22.67
2019-04-05T03:54:23.997Z,25.10
2019-04-05T03:54:59.613Z,24.10
2019-04-05T03:55:35.187Z,21.90
2019-04-05T03:56:10.716Z,22.33
2019-04-05T03:56:46.224Z,23.23
2019-04-05T03:57:41.144Z,26.93
2019-04-05T03:58:24.246Z,21.83
2019-04-05T03:59:11.101Z,21.57
2019-04-05T03:59:57.780Z,22.10
2019-04-05T04:00:56.293Z,23.83
2019-04-05T04:01:58.352Z,23.57
2019-04-05T04:02:41.306Z,21.80
2019-04-05T04:03:39.054Z,22.87
2019-04-05T04:04:59.274Z,23.80
2019-04-05T04:05:51.368Z,22.33
2019-04-05T04:06:27.439Z,27.57
2019-04-05T04:07:35.147Z,26.07
2019-04-05T04:08:08.986Z,25.03
2019-04-05T04:08:44.561Z,23.83
2019-04-05T04:09:20.164Z,23.40
2019-04-05T04:09:55.725Z,23.03
2019-04-05T04:10:31.302Z,24.90
2019-04-05T04:11:09.052Z,22.97
2019-04-05T04:11:44.960Z,23.20
2019-04-05T04:12:20.558Z,23.83
2019-04-05T04:12:58.713Z,23.00
2019-04-05T04:13:36.492Z,23.97
2019-04-05T04:14:14.712Z,25.23
2019-04-05T04:14:54.942Z,24.97
2019-04-05T04:15:33.843Z,26.50
2019-04-05T04:16:13.145Z,25.27
2019-04-05T04:16:51.821Z,24.37
2019-04-05T04:17:33.185Z,22.47
2019-04-05T04:18:10.551Z,25.27
2019-04-05T04:18:48.140Z,24.33
2019-04-05T04:19:25.291Z,21.87
2019-04-05T04:20:03.280Z,23.80
2019-04-05T04:20:42.325Z,24.00
2019-04-05T04:21:35.629Z,24.43
2019-04-05T04:22:36.418Z,26.00
2019-04-05T04:23:12.217Z,25.27
2019-04-05T04:23:51.674Z,23.30
2019-04-05T04:24:33.175Z,24.23
2019-04-05T04:25:14.055Z,22.80
2019-04-05T04:25:56.466Z,24.43
2019-04-05T04:26:40.989Z,22.70
2019-04-05T04:27:17.176Z,24.67
2019-04-05T04:27:52.775Z,23.23
2019-04-05T04:28:28.304Z,23.27
2019-04-05T04:29:09.197Z,24.07
2019-04-05T04:29:48.548Z,23.43
2019-04-05T04:30:25.462Z,24.13
2019-04-05T04:31:01.233Z,22.80
2019-04-05T04:31:36.790Z,22.87
2019-04-05T04:32:12.348Z,20.90
2019-04-05T04:32:47.901Z,22.43
2019-04-05T04:33:23.478Z,22.53
2019-04-05T04:33:59.199Z,25.23
2019-04-05T04:34:36.738Z,23.63
2019-04-05T04:35:15.171Z,22.50
2019-04-05T04:35:51.133Z,22.23
2019-04-05T04:36:27.638Z,23.50
2019-04-05T04:37:03.230Z,21.83
2019-04-05T04:37:38.886Z,22.47
2019-04-05T04:38:14.585Z,21.30
2019-04-05T04:38:51.151Z,23.87
2019-04-05T04:39:29.895Z,22.80
2019-04-05T04:40:13.481Z,20.73
2019-04-05T04:41:01.697Z,23.17
2019-04-05T04:42:17.760Z,22.13
2019-04-05T04:44:15.216Z,21.33
2019-04-05T04:45:12.995Z,23.23
2019-04-05T04:45:51.680Z,24.20
2019-04-05T04:47:32.487Z,23.53
2019-04-05T04:48:08.108Z,24.73
2019-04-05T04:48:49.264Z,22.37
2019-04-05T04:49:41.867Z,22.13
2019-04-05T04:50:34.956Z,25.10
2019-04-05T04:51:26.417Z,22.10
2019-04-05T04:52:16.475Z,21.77
2019-04-05T04:53:04.334Z,25.77
2019-04-05T04:54:14.181Z,21.73
2019-04-05T04:55:33.335Z,23.17
2019-04-05T04:56:32.210Z,24.37
2019-04-05T04:57:19.936Z,22.90
2019-04-05T04:58:19.085Z,22.63
2019-04-05T04:58:55.578Z,23.33
2019-04-05T05:00:03.368Z,22.40
2019-04-05T05:01:28.503Z,23.23
2019-04-05T05:02:04.537Z,21.70
2019-04-05T05:02:44.052Z,22.87
2019-04-05T05:03:33.670Z,22.17
2019-04-05T05:04:10.103Z,23.20
2019-04-05T05:04:52.391Z,23.67
2019-04-05T05:06:13.327Z,23.70
2019-04-05T05:06:53.762Z,23.10
2019-04-05T05:07:29.381Z,22.07
2019-04-05T05:08:04.931Z,22.70
2019-04-05T05:08:42.659Z,23.50
2019-04-05T05:09:20.063Z,21.60
2019-04-05T05:09:56.042Z,23.30
2019-04-05T05:10:31.642Z,22.97
2019-04-05T05:11:14.659Z,23.53
2019-04-05T05:11:48.820Z,23.30
2019-04-05T05:12:26.448Z,27.37
2019-04-05T05:13:03.317Z,25.67
2019-04-05T05:13:39.345Z,24.00
2019-04-05T05:14:16.464Z,22.80
2019-04-05T05:14:53.605Z,22.90
2019-04-05T05:15:30.617Z,22.97
2019-04-05T05:16:14.426Z,21.53
2019-04-05T05:16:55.678Z,25.03
2019-04-05T05:17:58.878Z,21.03
2019-04-05T05:18:55.571Z,22.70
2019-04-05T05:19:35.876Z,23.37
2019-04-05T05:20:17.768Z,22.57
2019-04-05T05:20:53.339Z,20.27
2019-04-05T05:21:28.875Z,24.47
2019-04-05T05:22:04.513Z,22.73
2019-04-05T05:22:40.130Z,22.50
2019-04-05T05:23:15.653Z,24.10
2019-04-05T05:23:52.853Z,22.57
2019-04-05T05:24:29.406Z,19.57
2019-04-05T05:25:06.483Z,21.50
2019-04-05T05:25:49.249Z,22.60
2019-04-05T05:26:25.292Z,22.33
2019-04-05T05:27:01.540Z,23.30
2019-04-05T05:27:37.289Z,21.70
2019-04-05T05:28:12.849Z,20.77
2019-04-05T05:28:48.401Z,22.13
2019-04-05T05:29:24.093Z,22.27
2019-04-05T05:30:05.544Z,22.83
2019-04-05T05:30:49.654Z,22.97
2019-04-05T05:31:35.799Z,25.90
2019-04-05T05:32:18.224Z,24.17
2019-04-05T05:33:00.919Z,26.10
2019-04-05T05:33:41.905Z,26.20
2019-04-05T05:34:23.097Z,27.43
2019-04-05T05:35:04.468Z,32.43
2019-04-05T05:35:45.160Z,32.60
2019-04-05T05:36:24.103Z,33.40
2019-04-05T05:37:06.647Z,33.10
2019-04-05T05:37:45.738Z,36.47
2019-04-05T05:38:25.511Z,33.00
2019-04-05T05:39:15.218Z,32.80
2019-04-05T05:40:08.075Z,32.70
2019-04-05T05:40:49.873Z,32.33
2019-04-05T05:41:25.544Z,32.67
2019-04-05T05:42:01.419Z,34.67
2019-04-05T05:42:37.203Z,32.90
2019-04-05T05:43:12.972Z,34.73
2019-04-05T05:43:49.087Z,35.10
2019-04-05T05:44:25.013Z,34.03
2019-04-05T05:45:00.538Z,32.70
2019-04-05T05:45:36.076Z,36.97
2019-04-05T05:46:13.248Z,32.17
2019-04-05T05:46:48.779Z,35.20
2019-04-05T05:47:24.322Z,33.80
2019-04-05T05:48:02.082Z,31.93
2019-04-05T05:48:38.741Z,33.53
2019-04-05T05:49:15.980Z,30.87
2019-04-05T05:50:02.023Z,28.97
2019-04-05T05:50:39.157Z,34.17
2019-04-05T05:51:15.597Z,29.83
2019-04-05T05:51:51.970Z,29.60
2019-04-05T05:52:30.354Z,32.40
2019-04-05T05:53:05.911Z,32.60
2019-04-05T05:53:41.491Z,30.73
2019-04-05T05:54:17.085Z,29.93
2019-04-05T05:54:52.703Z,33.10
2019-04-05T05:55:30.097Z,31.97
2019-04-05T05:56:05.979Z,29.23
2019-04-05T05:56:42.119Z,31.00
2019-04-05T05:57:17.679Z,31.07
2019-04-05T05:57:58.424Z,35.23
2019-04-05T05:58:32.604Z,31.57
2019-04-05T05:59:08.340Z,27.70
2019-04-05T05:59:43.890Z,30.77
2019-04-05T06:00:20.962Z,30.73
2019-04-05T06:00:56.524Z,32.00
2019-04-05T06:01:32.162Z,30.50
2019-04-05T06:02:12.605Z,28.70
2019-04-05T06:02:49.820Z,31.20
2019-04-05T06:03:26.776Z,33.00
2019-04-05T06:04:03.190Z,32.23
2019-04-05T06:04:39.079Z,30.37
2019-04-05T06:05:15.287Z,30.37
2019-04-05T06:06:03.561Z,31.30
2019-04-05T06:06:28.816Z,29.53
2019-04-05T06:07:04.392Z,29.40
2019-04-05T06:07:39.907Z,30.57
2019-04-05T06:08:15.499Z,34.80
2019-04-05T06:08:51.254Z,30.03
2019-04-05T06:09:29.532Z,31.10
2019-04-05T06:10:05.497Z,30.17
2019-04-05T06:10:41.108Z,30.17
2019-04-05T06:11:19.552Z,31.47
2019-04-05T06:11:56.901Z,30.43
2019-04-05T06:12:44.776Z,30.67
2019-04-05T06:13:24.507Z,32.83
2019-04-05T06:14:03.532Z,28.97
2019-04-05T06:14:39.192Z,29.13
2019-04-05T06:15:14.796Z,31.13
2019-04-05T06:15:50.561Z,29.90
2019-04-05T06:16:28.872Z,29.23
2019-04-05T06:17:04.679Z,34.03
2019-04-05T06:17:40.196Z,32.13
2019-04-05T06:18:15.729Z,30.90
2019-04-05T06:18:51.263Z,30.23
2019-04-05T06:19:26.791Z,31.10
2019-04-05T06:20:02.439Z,32.33
2019-04-05T06:20:38.004Z,30.07
2019-04-05T06:21:13.519Z,29.53
2019-04-05T06:21:49.053Z,28.83
2019-04-05T06:22:24.585Z,33.33
2019-04-05T06:23:00.172Z,31.93
2019-04-05T06:23:36.048Z,28.57
2019-04-05T06:24:11.866Z,26.50
2019-04-05T06:24:47.441Z,30.60
2019-04-05T06:25:22.991Z,27.53
2019-04-05T06:25:58.512Z,27.27
2019-04-05T06:26:34.123Z,27.93
2019-04-05T06:27:09.669Z,30.27
2019-04-05T06:27:45.359Z,29.47
2019-04-05T06:28:20.904Z,30.27
2019-04-05T06:28:56.457Z,27.30
2019-04-05T06:29:31.997Z,26.00
2019-04-05T06:30:07.849Z,31.43
2019-04-05T06:30:43.427Z,30.03
2019-04-05T06:31:18.956Z,28.13
2019-04-05T06:31:55.570Z,31.63
2019-04-05T06:32:31.086Z,28.63
2019-04-05T06:33:06.926Z,27.20
2019-04-05T06:33:42.478Z,29.33
2019-04-05T06:34:18.008Z,28.17
2019-04-05T06:34:54.050Z,31.60
2019-04-05T06:35:29.736Z,28.77
2019-04-05T06:36:05.266Z,29.93
2019-04-05T06:36:40.872Z,30.00
2019-04-05T06:37:16.720Z,28.43
2019-04-05T06:37:52.248Z,27.53
2019-04-05T06:38:28.862Z,31.27
2019-04-05T06:39:06.218Z,28.53
2019-04-05T06:39:41.773Z,30.10
2019-04-05T06:40:17.279Z,29.43
2019-04-05T06:40:52.821Z,29.13
2019-04-05T06:41:29.580Z,29.13
2019-04-05T06:42:05.162Z,29.93
2019-04-05T06:42:40.675Z,32.83
2019-04-05T06:43:17.168Z,32.20
2019-04-05T06:43:52.701Z,33.27
2019-04-05T06:44:28.280Z,34.27
2019-04-05T06:45:03.957Z,31.33
2019-04-05T06:45:39.548Z,31.87
2019-04-05T06:46:15.067Z,29.33
2019-04-05T06:46:50.590Z,28.77
2019-04-05T06:47:26.118Z,30.50
2019-04-05T06:48:02.889Z,30.27
2019-04-05T06:48:38.428Z,33.60
2019-04-05T06:49:14.147Z,30.70
2019-04-05T06:49:49.781Z,29.77
2019-04-05T06:50:26.403Z,30.83
2019-04-05T06:51:02.207Z,30.20
2019-04-05T06:51:37.808Z,28.50
2019-04-05T06:52:13.769Z,32.13
2019-04-05T06:52:50.429Z,32.83
2019-04-05T06:53:26.460Z,32.57
2019-04-05T06:54:03.483Z,32.90
2019-04-05T06:54:39.214Z,35.73
2019-04-05T06:55:14.747Z,30.87
2019-04-05T06:55:50.616Z,27.53
2019-04-05T06:56:26.184Z,26.57
2019-04-05T06:57:01.986Z,27.37
2019-04-05T06:57:37.925Z,27.77
2019-04-05T06:58:19.583Z,27.10
2019-04-05T06:58:50.781Z,27.10
2019-04-05T06:59:26.337Z,27.80
2019-04-05T07:00:01.909Z,26.20
2019-04-05T07:00:38.702Z,25.97
2019-04-05T07:01:14.329Z,24.13
2019-04-05T07:01:49.868Z,24.33
2019-04-05T07:02:25.427Z,25.80
2019-04-05T07:03:01.247Z,26.30
2019-04-05T07:03:36.921Z,28.17
2019-04-05T07:04:12.454Z,26.60
2019-04-05T07:04:48.002Z,26.03
2019-04-05T07:05:23.626Z,26.40
2019-04-05T07:06:00.320Z,28.33
2019-04-05T07:06:36.218Z,26.73
2019-04-05T07:07:11.938Z,27.97
2019-04-05T07:07:47.575Z,26.40
2019-04-05T07:08:23.152Z,27.57
2019-04-05T07:08:59.431Z,28.50
2019-04-05T07:09:35.968Z,29.40
2019-04-05T07:10:12.097Z,26.80
2019-04-05T07:10:48.727Z,26.77
2019-04-05T07:11:25.895Z,28.73
2019-04-05T07:12:02.391Z,28.67
2019-04-05T07:12:39.158Z,26.80
2019-04-05T07:13:15.347Z,26.30
2019-04-05T07:14:10.084Z,29.63
2019-04-05T07:15:04.147Z,27.77
2019-04-05T07:15:58.493Z,31.60
2019-04-05T07:16:34.780Z,28.77
2019-04-05T07:17:11.667Z,28.87
2019-04-05T07:17:47.928Z,27.73
2019-04-05T07:18:34.189Z,25.77
2019-04-05T07:19:01.297Z,27.00
2019-04-05T07:19:36.944Z,25.93
2019-04-05T07:20:12.459Z,27.43
2019-04-05T07:20:48.016Z,25.23
2019-04-05T07:21:23.569Z,25.27
2019-04-05T07:21:59.128Z,23.27
2019-04-05T07:22:39.248Z,26.97
2019-04-05T07:23:12.891Z,27.27
2019-04-05T07:23:48.465Z,25.67
2019-04-05T07:24:24.038Z,26.60
2019-04-05T07:24:59.593Z,25.97
2019-04-05T07:25:35.157Z,30.53
2019-04-05T07:26:11.750Z,27.73
2019-04-05T07:26:47.332Z,26.53
2019-04-05T07:27:23.329Z,29.03
2019-04-05T07:27:58.879Z,29.73
2019-04-05T07:28:34.720Z,29.60
2019-04-05T07:29:10.323Z,24.63
2019-04-05T07:29:45.891Z,27.00
2019-04-05T07:30:21.528Z,29.33
2019-04-05T07:30:57.109Z,30.90
2019-04-05T07:31:32.689Z,27.27
2019-04-05T07:32:08.323Z,26.83
2019-04-05T07:32:44.429Z,26.60
2019-04-05T07:33:20.034Z,26.53
2019-04-05T07:33:56.379Z,27.67
2019-04-05T07:34:32.271Z,24.67
2019-04-05T07:35:07.815Z,26.20
2019-04-05T07:35:43.350Z,28.13
2019-04-05T07:36:18.879Z,27.93
2019-04-05T07:36:54.429Z,26.83
2019-04-05T07:37:29.961Z,24.30
2019-04-05T07:38:05.477Z,27.47
2019-04-05T07:38:41.020Z,29.40
2019-04-05T07:39:16.551Z,27.47
2019-04-05T07:39:52.089Z,27.30
2019-04-05T07:40:27.896Z,27.10
2019-04-05T07:41:03.467Z,27.00
2019-04-05T07:41:39.065Z,26.90
2019-04-05T07:42:14.605Z,32.30
2019-04-05T07:42:50.192Z,27.60
2019-04-05T07:43:25.742Z,27.63
2019-04-05T07:44:01.282Z,32.43
2019-04-05T07:44:36.819Z,29.67
2019-04-05T07:45:12.380Z,35.30
2019-04-05T07:45:48.018Z,30.43
2019-04-05T07:46:23.547Z,28.23
2019-04-05T07:46:59.081Z,31.23
2019-04-05T07:47:34.891Z,30.47
2019-04-05T07:48:10.776Z,29.63
2019-04-05T07:48:46.362Z,27.40
2019-04-05T07:49:21.918Z,33.30
2019-04-05T07:49:57.464Z,33.00
2019-04-05T07:50:32.988Z,32.03
2019-04-05T07:51:08.568Z,29.50
2019-04-05T07:51:44.379Z,29.27
2019-04-05T07:52:19.913Z,30.70
2019-04-05T07:52:55.460Z,33.77
2019-04-05T07:53:31.001Z,32.57
2019-04-05T07:54:06.552Z,33.63
2019-04-05T07:54:42.073Z,33.57
2019-04-05T07:55:17.673Z,33.87
2019-04-05T07:55:54.221Z,30.10
2019-04-05T07:56:30.005Z,30.47
2019-04-05T07:57:05.722Z,32.27
2019-04-05T07:57:41.284Z,30.07
2019-04-05T07:58:16.857Z,32.50
2019-04-05T07:58:52.648Z,33.27
2019-04-05T07:59:28.326Z,31.50
2019-04-05T08:00:05.005Z,31.53
2019-04-05T08:00:49.117Z,30.07
2019-04-05T08:01:24.701Z,30.33
2019-04-05T08:02:00.208Z,30.53
2019-04-05T08:02:35.774Z,32.60
2019-04-05T08:03:11.373Z,34.87